createdAt,value
2023-03-06T00:00:51.011Z,52.18
2023-03-06T00:01:55.253Z,52.18
2023-03-06T00:02:59.475Z,52.13
2023-03-06T00:04:03.977Z,52.09
2023-03-06T00:05:08.240Z,52.25
2023-03-06T00:06:12.816Z,51.96
2023-03-06T00:07:17.057Z,51.99
2023-03-06T00:08:21.291Z,52.18
2023-03-06T00:09:25.527Z,52.19
2023-03-06T00:10:29.809Z,52.15
2023-03-06T00:11:34.068Z,52.32
2023-03-06T00:12:38.324Z,52.59
2023-03-06T00:13:42.588Z,52.42
2023-03-06T00:14:46.810Z,52.25
2023-03-06T00:15:51.375Z,52.68
2023-03-06T00:16:55.658Z,52.64
2023-03-06T00:17:59.956Z,52.75
2023-03-06T00:19:04.164Z,52.47
2023-03-06T00:20:08.369Z,52.56
2023-03-06T00:21:12.595Z,53.05
2023-03-06T00:22:16.879Z,52.75
2023-03-06T00:23:21.115Z,52.47
2023-03-06T00:24:25.350Z,52.81
2023-03-06T00:25:29.585Z,52.76
2023-03-06T00:26:33.878Z,53.01
2023-03-06T00:27:38.066Z,52.73
2023-03-06T00:28:42.383Z,52.95
2023-03-06T00:29:46.643Z,52.94
2023-03-06T00:30:50.895Z,53.17
2023-03-06T00:31:55.135Z,53.42
2023-03-06T00:32:59.360Z,53.22
2023-03-06T00:34:03.602Z,53.39
2023-03-06T00:35:07.885Z,53.63
2023-03-06T00:36:12.133Z,53.64
2023-03-06T00:37:16.398Z,53.54
2023-03-06T00:38:20.631Z,53.68
2023-03-06T00:39:24.868Z,53.28
2023-03-06T00:40:29.118Z,53.64
2023-03-06T00:41:33.379Z,53.5
2023-03-06T00:42:37.669Z,53.36
2023-03-06T00:43:41.931Z,53.52
2023-03-06T00:44:46.205Z,53.35
2023-03-06T00:45:50.536Z,53.52
2023-03-06T00:46:54.809Z,53.63
2023-03-06T00:47:59.045Z,53.59
2023-03-06T00:49:03.302Z,53.46
2023-03-06T00:50:07.539Z,53.62
2023-03-06T00:51:15.404Z,53.71
2023-03-06T00:52:19.694Z,53.73
2023-03-06T00:53:23.927Z,53.38
2023-03-06T00:54:28.145Z,53.72
2023-03-06T00:55:32.373Z,53.33
2023-03-06T00:56:36.563Z,53.21
2023-03-06T00:57:40.834Z,53.3
2023-03-06T00:58:45.091Z,52.95
2023-03-06T00:59:49.356Z,53.23
2023-03-06T01:00:53.703Z,52.93
2023-03-06T01:01:58.182Z,53.57
2023-03-06T01:03:02.499Z,53.44
2023-03-06T01:04:06.736Z,53.25
2023-03-06T01:05:10.961Z,53.18
2023-03-06T01:06:15.195Z,53.18
2023-03-06T01:07:19.405Z,53.31
2023-03-06T01:08:25.899Z,53.2
2023-03-06T01:09:30.219Z,53.68
2023-03-06T01:10:34.469Z,53.53
2023-03-06T01:11:38.693Z,53.88
2023-03-06T01:12:42.934Z,54.02
2023-03-06T01:13:47.197Z,53.95
2023-03-06T01:14:51.490Z,54.17
2023-03-06T01:15:55.744Z,53.63
2023-03-06T01:16:59.975Z,53.84
2023-03-06T01:18:04.230Z,54.06
2023-03-06T01:19:08.476Z,53.79
2023-03-06T01:20:12.718Z,54.16
2023-03-06T01:21:17.024Z,53.77
2023-03-06T01:22:21.222Z,54.26
2023-03-06T01:23:25.450Z,54.13
2023-03-06T01:24:29.929Z,54.39
2023-03-06T01:25:34.159Z,54.5
2023-03-06T01:26:38.412Z,54.49
2023-03-06T01:27:42.659Z,54.15
2023-03-06T01:28:46.937Z,54.21
2023-03-06T01:29:51.305Z,54.25
2023-03-06T01:30:55.522Z,54.15
2023-03-06T01:32:00.010Z,54.1
2023-03-06T01:33:04.330Z,54.23
2023-03-06T01:34:08.560Z,54.19
2023-03-06T01:35:12.812Z,54.23
2023-03-06T01:36:17.031Z,54.61
2023-03-06T01:37:21.266Z,54.42
2023-03-06T01:38:25.488Z,54.41
2023-03-06T01:39:29.746Z,54.69
2023-03-06T01:40:34.529Z,54.13
2023-03-06T01:41:38.793Z,54.3
2023-03-06T01:42:43.022Z,54.5
2023-03-06T01:43:47.292Z,54.4
2023-03-06T01:44:51.555Z,54.53
2023-03-06T01:45:55.982Z,54.57
2023-03-06T01:47:00.238Z,54.61
2023-03-06T01:48:04.439Z,54.51
2023-03-06T01:49:08.689Z,54.75
2023-03-06T01:50:12.970Z,54.87
2023-03-06T01:51:17.252Z,54.82
2023-03-06T01:52:21.766Z,54.17
2023-03-06T01:53:25.976Z,54.5
2023-03-06T01:54:30.245Z,54.62
2023-03-06T01:55:34.468Z,54.74
2023-03-06T01:56:38.737Z,54.8
2023-03-06T01:57:42.968Z,54.76
2023-03-06T01:58:47.210Z,54.82
2023-03-06T01:59:51.456Z,55.13
2023-03-06T02:00:55.835Z,55.04
2023-03-06T02:02:00.198Z,55.01
2023-03-06T02:03:04.451Z,55.15
2023-03-06T02:04:08.677Z,55.34
2023-03-06T02:05:12.991Z,55.15
2023-03-06T02:06:17.240Z,55.15
2023-03-06T02:07:21.700Z,55.03
2023-03-06T02:08:25.947Z,55.21
2023-03-06T02:09:30.189Z,55.18
2023-03-06T02:10:34.421Z,54.52
2023-03-06T02:11:38.907Z,55.45
2023-03-06T02:12:43.192Z,55.31
2023-03-06T02:13:47.443Z,55.01
2023-03-06T02:14:51.737Z,54.57
2023-03-06T02:15:55.980Z,55.16
2023-03-06T02:17:00.395Z,55.23
2023-03-06T02:18:04.732Z,55.12
2023-03-06T02:19:08.955Z,55.25
2023-03-06T02:20:13.205Z,55.55
2023-03-06T02:21:17.462Z,55.56
2023-03-06T02:22:21.681Z,55.37
2023-03-06T02:23:25.926Z,55.51
2023-03-06T02:24:30.184Z,55.34
2023-03-06T02:25:34.414Z,55.33
2023-03-06T02:26:38.686Z,55.74
2023-03-06T02:27:42.902Z,55.54
2023-03-06T02:28:47.152Z,55.73
2023-03-06T02:29:51.420Z,55.73
2023-03-06T02:30:56.090Z,55.03
2023-03-06T02:32:00.707Z,55.66
2023-03-06T02:33:04.936Z,55.71
2023-03-06T02:34:09.191Z,55.47
2023-03-06T02:35:13.428Z,55.3
2023-03-06T02:36:17.694Z,55.35
2023-03-06T02:37:21.919Z,55.35
2023-03-06T02:38:26.139Z,55.2
2023-03-06T02:39:30.373Z,54.81
2023-03-06T02:40:34.599Z,55.3
2023-03-06T02:41:38.835Z,55.07
2023-03-06T02:42:43.056Z,55.38
2023-03-06T02:43:47.273Z,55.35
2023-03-06T02:44:51.659Z,55.51
2023-03-06T02:45:56.075Z,55.68
2023-03-06T02:47:00.285Z,55.54
2023-03-06T02:48:04.519Z,55.61
2023-03-06T02:49:08.722Z,55.78
2023-03-06T02:50:13.095Z,55.68
2023-03-06T02:51:17.315Z,55.62
2023-03-06T02:52:21.543Z,55.66
2023-03-06T02:53:25.779Z,55.9
2023-03-06T02:54:30.000Z,55.96
2023-03-06T02:55:34.362Z,55.86
2023-03-06T02:56:38.578Z,55.87
2023-03-06T02:57:42.811Z,55.96
2023-03-06T02:58:47.042Z,55.99
2023-03-06T02:59:51.241Z,55.74
2023-03-06T03:00:55.622Z,55.27
2023-03-06T03:01:59.853Z,55.84
2023-03-06T03:03:04.106Z,55.83
2023-03-06T03:04:08.562Z,55.42
2023-03-06T03:05:12.813Z,55.87
2023-03-06T03:06:17.043Z,55.7
2023-03-06T03:07:21.280Z,55.67
2023-03-06T03:08:25.752Z,55.9
2023-03-06T03:09:30.006Z,55.98
2023-03-06T03:10:34.234Z,55.89
2023-03-06T03:11:38.454Z,56
2023-03-06T03:12:42.722Z,56.03
2023-03-06T03:13:46.933Z,56.22
2023-03-06T03:14:51.169Z,56.14
2023-03-06T03:15:55.593Z,56.03
2023-03-06T03:16:59.866Z,55.98
2023-03-06T03:18:04.120Z,56.05
2023-03-06T03:19:08.339Z,55.87
2023-03-06T03:20:12.561Z,56.07
2023-03-06T03:21:16.782Z,55.98
2023-03-06T03:22:21.014Z,55.81
2023-03-06T03:23:25.247Z,55.89
2023-03-06T03:24:29.688Z,55.31
2023-03-06T03:25:33.905Z,55.76
2023-03-06T03:26:38.122Z,55.56
2023-03-06T03:27:42.399Z,55.62
2023-03-06T03:28:46.622Z,55.5
2023-03-06T03:29:50.936Z,56.13
2023-03-06T03:30:55.341Z,55.99
2023-03-06T03:31:59.627Z,55.63
2023-03-06T03:33:03.895Z,56.08
2023-03-06T03:34:08.203Z,56.02
2023-03-06T03:35:12.466Z,56.14
2023-03-06T03:36:16.689Z,55.73
2023-03-06T03:37:20.913Z,55.9
2023-03-06T03:38:25.262Z,55.5
2023-03-06T03:39:29.535Z,55.49
2023-03-06T03:40:33.801Z,56.1
2023-03-06T03:41:38.010Z,56.14
2023-03-06T03:42:42.232Z,56.29
2023-03-06T03:43:46.547Z,56.31
2023-03-06T03:44:50.922Z,56
2023-03-06T03:45:55.273Z,55.87
2023-03-06T03:46:59.570Z,56.17
2023-03-06T03:48:03.855Z,56.08
2023-03-06T03:49:08.130Z,55.72
2023-03-06T03:50:12.350Z,55.52
2023-03-06T03:51:16.550Z,55.94
2023-03-06T03:52:20.783Z,56.26
2023-03-06T03:53:25.016Z,56.17
2023-03-06T03:54:29.259Z,55.86
2023-03-06T03:55:33.495Z,56.39
2023-03-06T03:56:37.784Z,56.14
2023-03-06T03:57:42.021Z,56.52
2023-03-06T03:58:46.257Z,56.56
2023-03-06T03:59:50.498Z,56.05
2023-03-06T04:00:54.752Z,55.48
2023-03-06T04:01:59.167Z,56.02
2023-03-06T04:03:03.418Z,56.31
2023-03-06T04:04:07.638Z,55.92
2023-03-06T04:05:12.056Z,55.97
2023-03-06T04:06:16.324Z,56.52
2023-03-06T04:07:20.544Z,56.56
2023-03-06T04:08:24.774Z,56.04
2023-03-06T04:09:29.067Z,56.08
2023-03-06T04:10:33.305Z,56.18
2023-03-06T04:11:37.558Z,56.44
2023-03-06T04:12:41.789Z,56.27
2023-03-06T04:13:46.037Z,56.22
2023-03-06T04:14:50.277Z,56.56
2023-03-06T04:15:54.869Z,56.26
2023-03-06T04:16:59.126Z,56.4
2023-03-06T04:18:03.369Z,56.36
2023-03-06T04:19:07.577Z,56.33
2023-03-06T04:20:11.788Z,56.67
2023-03-06T04:21:16.054Z,56.54
2023-03-06T04:22:20.299Z,56.75
2023-03-06T04:23:24.512Z,56.87
2023-03-06T04:24:28.774Z,56.54
2023-03-06T04:25:32.989Z,56.87
2023-03-06T04:26:37.280Z,56.68
2023-03-06T04:27:41.520Z,56.93
2023-03-06T04:28:45.779Z,56.69
2023-03-06T04:29:49.984Z,56.52
2023-03-06T04:30:54.234Z,56.77
2023-03-06T04:31:58.487Z,56.79
2023-03-06T04:33:02.709Z,56.76
2023-03-06T04:34:06.971Z,56.71
2023-03-06T04:35:11.219Z,56.2
2023-03-06T04:36:15.664Z,56.81
2023-03-06T04:37:19.919Z,56.81
2023-03-06T04:38:24.193Z,56.9
2023-03-06T04:39:28.442Z,57.07
2023-03-06T04:40:32.754Z,56.92
2023-03-06T04:41:37.435Z,56.54
2023-03-06T04:42:41.793Z,56.62
2023-03-06T04:43:46.027Z,56.58
2023-03-06T04:44:50.275Z,57.05
2023-03-06T04:45:54.743Z,56.64
2023-03-06T04:46:58.991Z,56.82
2023-03-06T04:48:03.186Z,56.89
2023-03-06T04:49:07.425Z,56.96
2023-03-06T04:50:11.648Z,56.97
2023-03-06T04:51:15.885Z,56.39
2023-03-06T04:52:20.134Z,55.79
2023-03-06T04:53:24.358Z,56.44
2023-03-06T04:54:28.600Z,54.95
2023-03-06T04:55:32.843Z,55.02
2023-03-06T04:56:37.308Z,54.15
2023-03-06T04:57:41.545Z,53.5
2023-03-06T04:58:45.791Z,53.21
2023-03-06T04:59:50.024Z,52.99
2023-03-06T05:00:54.528Z,52.44
2023-03-06T05:01:58.910Z,52.43
2023-03-06T05:03:03.155Z,52.52
2023-03-06T05:04:07.408Z,52.24
2023-03-06T05:05:11.629Z,52.29
2023-03-06T05:06:15.853Z,51.68
2023-03-06T05:07:20.081Z,52.07
2023-03-06T05:08:24.291Z,51.85
2023-03-06T05:09:28.521Z,51.75
2023-03-06T05:10:32.751Z,51.57
2023-03-06T05:11:37.013Z,51.51
2023-03-06T05:12:41.230Z,51.44
2023-03-06T05:13:45.563Z,51.43
2023-03-06T05:14:50.179Z,51.31
2023-03-06T05:15:54.536Z,51.21
2023-03-06T05:16:58.738Z,51.3
2023-03-06T05:18:02.947Z,51.17
2023-03-06T05:19:07.215Z,51.08
2023-03-06T05:20:11.457Z,51
2023-03-06T05:21:15.720Z,50.99
2023-03-06T05:22:19.919Z,50.9
2023-03-06T05:23:24.139Z,50.85
2023-03-06T05:24:28.336Z,50.76
2023-03-06T05:25:32.542Z,50.81
2023-03-06T05:26:39.074Z,50.81
2023-03-06T05:27:43.368Z,50.4
2023-03-06T05:28:47.582Z,50.22
2023-03-06T05:29:51.837Z,50.05
2023-03-06T05:30:56.063Z,50.08
2023-03-06T05:32:00.620Z,49.88
2023-03-06T05:33:04.921Z,49.53
2023-03-06T05:34:09.348Z,49.35
2023-03-06T05:35:13.574Z,49.07
2023-03-06T05:36:17.865Z,48.89
2023-03-06T05:37:22.397Z,48.77
2023-03-06T05:38:27.016Z,48.67
2023-03-06T05:39:33.765Z,48.47
2023-03-06T05:40:37.981Z,48.29
2023-03-06T05:41:42.241Z,48.21
2023-03-06T05:42:46.496Z,47.97
2023-03-06T05:43:50.760Z,47.94
2023-03-06T05:44:54.998Z,47.98
2023-03-06T05:45:59.391Z,47.9
2023-03-06T05:47:03.631Z,47.81
2023-03-06T05:48:07.896Z,47.84
2023-03-06T05:49:12.165Z,47.67
2023-03-06T05:50:16.397Z,47.78
2023-03-06T05:51:20.619Z,47.63
2023-03-06T05:52:24.822Z,47.67
2023-03-06T05:53:29.285Z,47.56
2023-03-06T05:54:33.516Z,47.46
2023-03-06T05:55:37.784Z,47.58
2023-03-06T05:56:44.810Z,47.56
2023-03-06T05:57:49.048Z,47.72
2023-03-06T05:58:53.278Z,47.89
2023-03-06T05:59:57.515Z,47.84
2023-03-06T06:01:01.867Z,47.81
2023-03-06T06:02:06.273Z,48.01
2023-03-06T06:03:10.629Z,47.87
2023-03-06T06:04:14.843Z,47.85
2023-03-06T06:05:19.064Z,47.73
2023-03-06T06:06:23.325Z,47.83
2023-03-06T06:07:27.585Z,47.91
2023-03-06T06:08:34.875Z,47.87
2023-03-06T06:09:39.131Z,47.92
2023-03-06T06:10:43.373Z,47.91
2023-03-06T06:11:47.693Z,47.8
2023-03-06T06:12:51.932Z,47.82
2023-03-06T06:13:56.169Z,47.89
2023-03-06T06:15:00.395Z,47.9
2023-03-06T06:16:04.899Z,47.98
2023-03-06T06:17:09.155Z,48
2023-03-06T06:18:13.355Z,48
2023-03-06T06:19:17.569Z,47.96
2023-03-06T06:20:21.789Z,48.27
2023-03-06T06:21:26.029Z,48.12
2023-03-06T06:22:30.247Z,48.16
2023-03-06T06:23:34.491Z,48.47
2023-03-06T06:24:38.701Z,48.37
2023-03-06T06:25:42.927Z,48.66
2023-03-06T06:26:47.148Z,48.61
2023-03-06T06:27:51.373Z,48.49
2023-03-06T06:28:55.726Z,48.66
2023-03-06T06:29:59.960Z,48.72
2023-03-06T06:31:04.278Z,48.78
2023-03-06T06:32:08.663Z,48.59
2023-03-06T06:33:13.186Z,48.45
2023-03-06T06:34:17.724Z,48.68
2023-03-06T06:35:22.196Z,48.57
2023-03-06T06:36:26.436Z,48.71
2023-03-06T06:37:30.660Z,48.63
2023-03-06T06:38:34.893Z,48.7
2023-03-06T06:39:39.105Z,48.59
2023-03-06T06:40:43.338Z,48.68
2023-03-06T06:42:35.282Z,48.55
2023-03-06T06:43:41.988Z,48.73
2023-03-06T06:44:46.279Z,48.77
2023-03-06T06:45:53.115Z,48.6
2023-03-06T06:47:26.535Z,48.82
2023-03-06T06:48:30.838Z,48.62
2023-03-06T06:49:35.073Z,48.81
2023-03-06T06:50:39.306Z,48.65
2023-03-06T06:51:43.526Z,48.75
2023-03-06T06:52:47.851Z,48.81
2023-03-06T06:53:54.354Z,48.85
2023-03-06T06:54:58.662Z,48.9
2023-03-06T06:56:02.931Z,48.96
2023-03-06T06:57:07.176Z,49.01
2023-03-06T06:58:11.372Z,48.96
2023-03-06T06:59:19.333Z,48.69
2023-03-06T07:00:23.590Z,48.5
2023-03-06T07:01:27.943Z,48.43
2023-03-06T07:02:32.244Z,48.47
2023-03-06T07:03:36.670Z,48.26
2023-03-06T07:05:05.410Z,48.18
2023-03-06T07:06:09.799Z,48.18
2023-03-06T07:07:14.056Z,48.13
2023-03-06T07:08:18.316Z,48.19
2023-03-06T07:09:22.553Z,47.85
2023-03-06T07:10:26.853Z,47.94
2023-03-06T07:11:31.092Z,47.9
2023-03-06T07:12:35.509Z,48
2023-03-06T07:13:39.760Z,47.96
2023-03-06T07:14:44.004Z,48.29
2023-03-06T07:15:48.450Z,47.99
2023-03-06T07:16:52.665Z,47.91
2023-03-06T07:17:56.881Z,48.07
2023-03-06T07:19:01.138Z,48.35
2023-03-06T07:20:05.429Z,48.19
2023-03-06T07:21:09.743Z,48.06
2023-03-06T07:22:13.991Z,48.01
2023-03-06T07:23:18.311Z,48.04
2023-03-06T07:24:22.796Z,47.88
2023-03-06T07:25:27.030Z,48.01
2023-03-06T07:26:34.821Z,47.89
2023-03-06T07:27:39.319Z,48.17
2023-03-06T07:28:54.289Z,48.09
2023-03-06T07:29:58.565Z,48.26
2023-03-06T07:31:02.963Z,48.02
2023-03-06T07:32:07.331Z,48.17
2023-03-06T07:33:11.588Z,48.26
2023-03-06T07:34:15.814Z,48.17
2023-03-06T07:35:24.850Z,48.1
2023-03-06T07:36:29.144Z,48.25
2023-03-06T07:37:33.366Z,48.27
2023-03-06T07:38:37.596Z,48.52
2023-03-06T07:39:41.814Z,48.22
2023-03-06T07:40:46.134Z,48.31
2023-03-06T07:41:50.374Z,48.38
2023-03-06T07:42:55.676Z,48.37
2023-03-06T07:44:00.811Z,48.43
2023-03-06T07:45:05.049Z,48.24
2023-03-06T07:46:11.842Z,48.41
2023-03-06T07:47:16.130Z,48.2
2023-03-06T07:48:20.361Z,48.31
2023-03-06T07:49:24.584Z,48.27
2023-03-06T07:50:28.921Z,48.4
2023-03-06T07:51:33.170Z,48.44
2023-03-06T07:52:37.417Z,48.26
2023-03-06T07:53:41.732Z,48.32
2023-03-06T07:54:45.966Z,48.09
2023-03-06T07:55:50.274Z,48
2023-03-06T07:56:54.499Z,47.77
2023-03-06T07:57:58.727Z,47.59
2023-03-06T07:59:03.006Z,47.59
2023-03-06T08:00:07.221Z,47.6
2023-03-06T08:01:11.455Z,47.56
2023-03-06T08:02:15.721Z,47.5
2023-03-06T08:03:20.202Z,47.5
2023-03-06T08:04:24.446Z,47.54
2023-03-06T08:05:28.691Z,47.64
2023-03-06T08:06:32.997Z,47.67
2023-03-06T08:07:37.218Z,47.42
2023-03-06T08:08:41.550Z,47.4
2023-03-06T08:09:45.833Z,47.62
2023-03-06T08:10:50.071Z,47.64
2023-03-06T08:11:54.277Z,47.73
2023-03-06T08:12:58.499Z,47.62
2023-03-06T08:14:02.795Z,47.76
2023-03-06T08:15:07.016Z,47.68
2023-03-06T08:16:11.469Z,47.82
2023-03-06T08:17:15.719Z,47.98
2023-03-06T08:18:21.037Z,47.69
2023-03-06T08:19:25.343Z,47.73
2023-03-06T08:20:29.564Z,47.52
2023-03-06T08:21:33.813Z,47.56
2023-03-06T08:22:38.048Z,47.66
2023-03-06T08:23:42.302Z,47.66
2023-03-06T08:24:46.589Z,47.4
2023-03-06T08:25:50.810Z,47.44
2023-03-06T08:26:55.045Z,47.52
2023-03-06T08:27:59.351Z,47.49
2023-03-06T08:29:03.558Z,47.63
2023-03-06T08:30:07.816Z,47.5
2023-03-06T08:31:12.293Z,47.71
2023-03-06T08:32:16.695Z,47.81
2023-03-06T08:33:20.953Z,47.92
2023-03-06T08:34:25.222Z,47.78
2023-03-06T08:35:29.731Z,47.77
2023-03-06T08:36:34.018Z,48.05
2023-03-06T08:37:38.521Z,47.93
2023-03-06T08:38:42.846Z,48.12
2023-03-06T08:39:47.100Z,48.09
2023-03-06T08:40:51.306Z,48.13
2023-03-06T08:41:55.521Z,48.14
2023-03-06T08:42:59.744Z,48.34
2023-03-06T08:44:04.027Z,48.23
2023-03-06T08:45:08.366Z,48.25
2023-03-06T08:46:12.604Z,48.31
2023-03-06T08:47:16.818Z,48.28
2023-03-06T08:48:21.033Z,48.3
2023-03-06T08:49:25.261Z,48.36
2023-03-06T08:50:29.502Z,48.53
2023-03-06T08:51:33.742Z,48.45
2023-03-06T08:52:37.949Z,48.42
2023-03-06T08:53:45.846Z,48.43
2023-03-06T08:54:50.107Z,48.58
2023-03-06T08:55:54.327Z,48.47
2023-03-06T08:56:58.628Z,48.61
2023-03-06T08:58:02.836Z,48.39
2023-03-06T08:59:07.141Z,48.57
2023-03-06T09:00:11.362Z,48.49
2023-03-06T09:01:15.902Z,48.54
2023-03-06T09:02:20.275Z,48.5
2023-03-06T09:03:24.514Z,48.44
2023-03-06T09:04:28.759Z,48.74
2023-03-06T09:05:33.110Z,48.63
2023-03-06T09:06:37.378Z,48.34
2023-03-06T09:07:41.625Z,48.1
2023-03-06T09:08:45.936Z,48.02
2023-03-06T09:09:50.150Z,47.9
2023-03-06T09:10:54.612Z,47.7
2023-03-06T09:11:58.935Z,47.66
2023-03-06T09:13:03.186Z,47.47
2023-03-06T09:14:07.505Z,47.41
2023-03-06T09:15:11.742Z,47.33
2023-03-06T09:16:16.199Z,47.2
2023-03-06T09:17:20.620Z,47.11
2023-03-06T09:18:24.892Z,46.93
2023-03-06T09:19:29.244Z,47.04
2023-03-06T09:20:33.568Z,47.09
2023-03-06T09:21:37.781Z,47.05
2023-03-06T09:22:42.021Z,47.02
2023-03-06T09:23:46.268Z,47.23
2023-03-06T09:24:50.782Z,47.18
2023-03-06T09:25:55.049Z,47.18
2023-03-06T09:26:59.308Z,47.29
2023-03-06T09:28:13.466Z,47.32
2023-03-06T09:29:17.722Z,47.29
2023-03-06T09:30:21.964Z,47.27
2023-03-06T09:31:26.214Z,47.41
2023-03-06T09:32:30.823Z,47.35
2023-03-06T09:33:35.092Z,47.5
2023-03-06T09:34:39.306Z,47.45
2023-03-06T09:35:46.825Z,47.43
2023-03-06T09:36:58.816Z,47.47
2023-03-06T09:38:03.073Z,47.46
2023-03-06T09:39:07.334Z,47.7
2023-03-06T09:40:11.560Z,47.78
2023-03-06T09:41:15.839Z,47.77
2023-03-06T09:42:21.133Z,47.77
2023-03-06T09:43:25.364Z,47.72
2023-03-06T09:44:29.675Z,47.65
2023-03-06T09:45:33.926Z,47.9
2023-03-06T09:46:38.145Z,47.89
2023-03-06T09:47:42.372Z,47.93
2023-03-06T09:48:46.589Z,47.84
2023-03-06T09:49:50.817Z,47.9
2023-03-06T09:50:55.095Z,47.99
2023-03-06T09:51:59.332Z,48
2023-03-06T09:53:03.566Z,47.88
2023-03-06T09:54:07.796Z,47.96
2023-03-06T09:55:12.032Z,47.93
2023-03-06T09:56:16.319Z,47.97
2023-03-06T09:57:20.559Z,48.04
2023-03-06T09:58:24.808Z,47.88
2023-03-06T09:59:29.005Z,47.86
2023-03-06T10:00:35.793Z,47.94
2023-03-06T10:01:40.453Z,47.92
2023-03-06T10:02:45.028Z,47.75
2023-03-06T10:03:49.371Z,47.71
2023-03-06T10:04:53.813Z,47.84
2023-03-06T10:05:58.093Z,47.95
2023-03-06T10:07:02.342Z,47.89
2023-03-06T10:08:06.612Z,48
2023-03-06T10:09:10.905Z,48.07
2023-03-06T10:10:15.126Z,47.99
2023-03-06T10:11:19.404Z,48.1
2023-03-06T10:12:26.672Z,47.85
2023-03-06T10:13:30.892Z,47.92
2023-03-06T10:14:35.174Z,47.98
2023-03-06T10:15:39.578Z,47.91
2023-03-06T10:16:43.857Z,47.85
2023-03-06T10:17:48.131Z,47.57
2023-03-06T10:18:52.561Z,47.73
2023-03-06T10:19:56.853Z,47.75
2023-03-06T10:21:20.402Z,47.48
2023-03-06T10:22:24.660Z,47.35
2023-03-06T10:23:29.241Z,47.53
2023-03-06T10:24:33.507Z,47.54
2023-03-06T10:25:37.750Z,47.55
2023-03-06T10:26:42.484Z,47.33
2023-03-06T10:27:46.777Z,47.26
2023-03-06T10:28:51.100Z,47.26
2023-03-06T10:30:05.428Z,47.24
2023-03-06T10:31:10.572Z,47.28
2023-03-06T10:32:15.024Z,47.2
2023-03-06T10:33:19.284Z,47.51
2023-03-06T10:34:23.512Z,47.19
2023-03-06T10:35:31.155Z,47.24
2023-03-06T10:36:35.439Z,47.28
2023-03-06T10:37:39.723Z,47.37
2023-03-06T10:38:44.021Z,47.32
2023-03-06T10:39:48.241Z,47.26
2023-03-06T10:40:52.463Z,47.35
2023-03-06T10:41:56.700Z,47.4
2023-03-06T10:43:13.558Z,47.44
2023-03-06T10:44:17.845Z,47.55
2023-03-06T10:45:22.083Z,47.48
2023-03-06T10:46:26.461Z,47.48
2023-03-06T10:47:30.758Z,47.69
2023-03-06T10:48:34.990Z,47.68
2023-03-06T10:49:39.244Z,47.66
2023-03-06T10:50:43.453Z,47.72
2023-03-06T10:51:47.671Z,47.74
2023-03-06T10:52:51.920Z,47.82
2023-03-06T10:53:56.177Z,47.88
2023-03-06T10:55:00.401Z,47.83
2023-03-06T10:56:05.856Z,47.87
2023-03-06T10:57:10.109Z,48.06
2023-03-06T10:58:14.313Z,47.99
2023-03-06T10:59:18.587Z,48.08
2023-03-06T11:00:22.890Z,48.1
2023-03-06T11:01:27.423Z,48.16
2023-03-06T11:02:31.662Z,48.16
2023-03-06T11:03:35.908Z,48.19
2023-03-06T11:04:40.319Z,48.19
2023-03-06T11:05:44.553Z,48.49
2023-03-06T11:06:48.823Z,48.32
2023-03-06T11:07:53.069Z,48.5
2023-03-06T11:08:57.305Z,48.45
2023-03-06T11:10:01.711Z,48.52
2023-03-06T11:11:05.989Z,48.66
2023-03-06T11:12:10.219Z,48.1
2023-03-06T11:13:14.461Z,47.36
2023-03-06T11:14:18.704Z,47.12
2023-03-06T11:15:23.009Z,47.06
2023-03-06T11:16:28.178Z,46.79
2023-03-06T11:17:32.411Z,46.35
2023-03-06T11:18:36.640Z,46.67
2023-03-06T11:19:43.259Z,47.14
2023-03-06T11:20:54.315Z,47.1
2023-03-06T11:21:58.556Z,46.82
2023-03-06T11:23:02.827Z,46.84
2023-03-06T11:24:07.106Z,46.88
2023-03-06T11:25:11.346Z,46.79
2023-03-06T11:26:15.629Z,46.92
2023-03-06T11:27:19.852Z,46.81
2023-03-06T11:28:24.145Z,46.79
2023-03-06T11:29:29.801Z,47.01
2023-03-06T11:30:34.225Z,46.85
2023-03-06T11:31:38.566Z,46.98
2023-03-06T11:32:42.977Z,46.8
2023-03-06T11:33:47.225Z,46.49
2023-03-06T11:34:52.701Z,46.21
2023-03-06T11:35:57.138Z,46.13
2023-03-06T11:37:01.387Z,45.98
2023-03-06T11:38:05.644Z,45.88
2023-03-06T11:39:09.879Z,45.72
2023-03-06T11:40:14.162Z,45.77
2023-03-06T11:41:18.483Z,45.72
2023-03-06T11:42:22.724Z,45.62
2023-03-06T11:43:26.958Z,45.64
2023-03-06T11:44:31.222Z,45.5
2023-03-06T11:45:35.477Z,45.53
2023-03-06T11:46:39.992Z,45.56
2023-03-06T11:47:44.283Z,45.64
2023-03-06T11:48:48.516Z,45.71
2023-03-06T11:49:52.763Z,45.83
2023-03-06T11:50:57.031Z,45.9
2023-03-06T11:52:01.260Z,45.96
2023-03-06T11:53:05.533Z,46
2023-03-06T11:54:09.798Z,45.95
2023-03-06T11:55:14.012Z,46
2023-03-06T11:56:18.302Z,46.09
2023-03-06T11:57:22.574Z,46.05
2023-03-06T11:58:26.785Z,46.26
2023-03-06T11:59:31.097Z,46.16
2023-03-06T12:00:35.378Z,46.32
2023-03-06T12:01:39.637Z,46.34
2023-03-06T12:02:44.094Z,46.44
2023-03-06T12:03:50.619Z,46.5
2023-03-06T12:04:55.432Z,46.76
2023-03-06T12:05:59.699Z,46.66
2023-03-06T12:07:05.586Z,46.6
2023-03-06T12:08:11.461Z,46.74
2023-03-06T12:09:15.768Z,46.83
2023-03-06T12:10:21.125Z,46.88
2023-03-06T12:11:25.486Z,47.07
2023-03-06T12:12:29.764Z,46.98
2023-03-06T12:13:34.251Z,47.26
2023-03-06T12:14:38.478Z,47.21
2023-03-06T12:15:42.836Z,47.26
2023-03-06T12:16:47.224Z,47.34
2023-03-06T12:17:51.478Z,47.22
2023-03-06T12:18:55.731Z,47.19
2023-03-06T12:20:00.091Z,47.53
2023-03-06T12:21:04.333Z,47.34
2023-03-06T12:22:08.648Z,47.44
2023-03-06T12:23:17.459Z,47.69
2023-03-06T12:24:21.735Z,47.4
2023-03-06T12:25:25.982Z,47.21
2023-03-06T12:26:30.231Z,47.45
2023-03-06T12:27:34.448Z,47.43
2023-03-06T12:28:38.749Z,47.41
2023-03-06T12:29:43.010Z,47.42
2023-03-06T12:30:47.258Z,47.38
2023-03-06T12:31:51.664Z,47.48
2023-03-06T12:32:55.984Z,47.45
2023-03-06T12:34:02.453Z,47.33
2023-03-06T12:35:08.121Z,47.39
2023-03-06T12:36:12.388Z,47.47
2023-03-06T12:37:16.635Z,47.24
2023-03-06T12:38:20.941Z,47.32
2023-03-06T12:39:25.163Z,47.07
2023-03-06T12:40:29.564Z,47.12
2023-03-06T12:41:34.263Z,47.25
2023-03-06T12:42:38.528Z,47.24
2023-03-06T12:43:42.758Z,47.27
2023-03-06T12:44:47.049Z,47.44
2023-03-06T12:45:51.612Z,47.54
2023-03-06T12:46:55.890Z,47.35
2023-03-06T12:48:00.170Z,47.5
2023-03-06T12:49:04.414Z,47.28
2023-03-06T12:50:08.643Z,47.49
2023-03-06T12:51:12.860Z,47.62
2023-03-06T12:52:30.128Z,47.46
2023-03-06T12:53:34.744Z,47.47
2023-03-06T12:54:39.045Z,47.64
2023-03-06T12:55:43.332Z,47.55
2023-03-06T12:56:47.547Z,47.71
2023-03-06T12:57:51.768Z,47.52
2023-03-06T12:58:56.065Z,47.64
2023-03-06T13:00:00.334Z,47.68
2023-03-06T13:01:06.686Z,47.54
2023-03-06T13:02:11.119Z,47.43
2023-03-06T13:03:15.392Z,47.61
2023-03-06T13:04:19.652Z,47.64
2023-03-06T13:05:23.893Z,47.71
2023-03-06T13:06:28.141Z,47.77
2023-03-06T13:07:32.507Z,47.77
2023-03-06T13:08:36.808Z,47.57
2023-03-06T13:09:41.059Z,47.88
2023-03-06T13:10:45.338Z,47.82
2023-03-06T13:11:49.630Z,47.81
2023-03-06T13:12:53.845Z,47.78
2023-03-06T13:13:58.083Z,47.88
2023-03-06T13:15:02.477Z,47.76
2023-03-06T13:16:06.698Z,47.89
2023-03-06T13:17:10.985Z,47.82
2023-03-06T13:18:15.239Z,47.79
2023-03-06T13:19:19.589Z,47.95
2023-03-06T13:20:23.867Z,47.87
2023-03-06T13:21:28.158Z,47.88
2023-03-06T13:22:35.487Z,47.86
2023-03-06T13:23:40.913Z,47.85
2023-03-06T13:24:45.132Z,47.78
2023-03-06T13:25:49.463Z,47.83
2023-03-06T13:26:53.797Z,47.83
2023-03-06T13:27:58.048Z,47.87
2023-03-06T13:29:02.269Z,47.72
2023-03-06T13:30:06.575Z,47.79
2023-03-06T13:31:28.611Z,47.9
2023-03-06T13:32:33.061Z,47.96
2023-03-06T13:33:37.335Z,47.86
2023-03-06T13:34:41.588Z,47.88
2023-03-06T13:35:46.101Z,47.82
2023-03-06T13:36:50.335Z,47.87
2023-03-06T13:37:54.581Z,47.82
2023-03-06T13:38:58.828Z,47.75
2023-03-06T13:40:03.122Z,47.84
2023-03-06T13:41:07.382Z,47.88
2023-03-06T13:42:11.615Z,47.78
2023-03-06T13:43:15.881Z,47.79
2023-03-06T13:44:20.154Z,47.87
2023-03-06T13:45:24.403Z,47.88
2023-03-06T13:46:28.911Z,47.64
2023-03-06T13:47:34.475Z,47.79
2023-03-06T13:48:47.371Z,47.53
2023-03-06T13:49:51.590Z,47.58
2023-03-06T13:50:55.848Z,47.64
2023-03-06T13:52:00.153Z,47.64
2023-03-06T13:53:04.390Z,47.65
2023-03-06T13:54:09.028Z,47.55
2023-03-06T13:55:13.482Z,47.46
2023-03-06T13:56:17.737Z,47.57